createdAt,value
2023-03-19T00:02:23.668Z,99540.15
2023-03-19T00:12:29.428Z,99541.62
2023-03-19T00:22:35.107Z,99548.04
2023-03-19T00:32:41.169Z,99555.39
2023-03-19T00:42:46.926Z,99560.77
2023-03-19T00:52:53.331Z,99558.63
2023-03-19T01:02:58.946Z,99555.50
2023-03-19T01:13:05.034Z,99549.67
2023-03-19T01:23:10.694Z,99544.30
2023-03-19T01:33:16.895Z,99552.42
2023-03-19T01:43:24.136Z,99553.76
2023-03-19T01:53:32.940Z,99554.23
2023-03-19T02:03:40.261Z,99556.30
2023-03-19T02:13:47.262Z,99561.33
2023-03-19T02:24:00.918Z,99559.66
2023-03-19T02:34:28.769Z,99556.50
2023-03-19T02:44:34.599Z,99563.30
2023-03-19T02:54:40.275Z,99559.64
2023-03-19T03:04:46.550Z,99555.14
2023-03-19T03:14:52.230Z,99555.59
2023-03-19T03:24:57.962Z,99556.83
2023-03-19T03:35:05.370Z,99561.31
2023-03-19T03:45:13.111Z,99561.63
2023-03-19T03:55:19.006Z,99563.56
2023-03-19T04:05:24.796Z,99564.90
2023-03-19T04:15:30.694Z,99578.61
2023-03-19T04:25:36.376Z,99582.02
2023-03-19T04:35:42.462Z,99578.86
2023-03-19T04:45:48.152Z,99567.88
2023-03-19T04:55:53.930Z,99567.71
2023-03-19T05:05:59.905Z,99564.14
2023-03-19T05:16:06.816Z,99565.77
2023-03-19T05:26:11.715Z,99561.85
2023-03-19T05:36:18.224Z,99554.55
2023-03-19T05:46:24.594Z,99559.58
2023-03-19T05:56:30.960Z,99559.34
2023-03-19T06:06:36.637Z,99567.48
2023-03-19T06:16:42.818Z,99567.45
2023-03-19T06:26:48.689Z,99555.33
2023-03-19T06:36:54.792Z,99554.58
2023-03-19T06:47:00.469Z,99550.33
2023-03-19T06:57:06.303Z,99557.38
2023-03-19T07:07:12.673Z,99563.11
2023-03-19T07:17:18.411Z,99561.07
2023-03-19T07:27:24.091Z,99565.51
2023-03-19T07:37:29.808Z,99569.02
2023-03-19T07:47:35.768Z,99566.23
2023-03-19T07:57:41.725Z,99569.22
2023-03-19T08:07:49.646Z,99569.92
2023-03-19T08:18:01.765Z,99566.09
2023-03-19T08:28:09.932Z,99562.75
2023-03-19T08:38:15.542Z,99551.12
2023-03-19T08:48:21.263Z,99545.61
2023-03-19T08:58:28.269Z,99538.67
2023-03-19T09:08:34.723Z,99537.10
2023-03-19T09:18:40.429Z,99548.65
2023-03-19T09:28:46.556Z,99553.84
2023-03-19T09:38:52.868Z,99551.39
2023-03-19T09:49:01.946Z,99546.78
2023-03-19T09:59:09.696Z,99541.45
2023-03-19T10:09:32.021Z,99538.09
2023-03-19T10:19:43.493Z,99541.59
2023-03-19T10:29:49.357Z,99539.63
2023-03-19T10:39:57.287Z,99539.84
2023-03-19T10:50:03.866Z,99529.75
2023-03-19T11:00:19.501Z,99521.86
2023-03-19T11:10:30.025Z,99507.01
2023-03-19T11:20:38.333Z,99498.89
2023-03-19T11:30:55.034Z,99491.75
2023-03-19T11:41:12.108Z,99491.73
2023-03-19T11:51:24.049Z,99477.34
2023-03-19T12:02:03.365Z,99465.64
2023-03-19T12:12:25.450Z,99462.71
2023-03-19T12:22:43.892Z,99460.85
2023-03-19T12:33:03.990Z,99459.28
2023-03-19T12:43:29.568Z,99445.66
2023-03-19T12:53:44.797Z,99441.59
2023-03-19T13:03:55.944Z,99440.59
2023-03-19T13:14:09.887Z,99436.36
2023-03-19T13:24:23.041Z,99436.23
2023-03-19T13:34:32.433Z,99425.23
2023-03-19T13:44:43.322Z,99423.21
2023-03-19T13:54:53.509Z,99416.39
2023-03-19T14:05:03.043Z,99414.33
2023-03-19T14:15:22.770Z,99401.73
2023-03-19T14:25:49.392Z,99389.16
2023-03-19T14:35:57.257Z,99384.16
2023-03-19T14:46:04.181Z,99376.49
2023-03-19T14:56:17.648Z,99376.33
2023-03-19T15:06:24.284Z,99383.16
2023-03-19T15:16:40.961Z,99385.02
2023-03-19T15:26:48.586Z,99386.05
2023-03-19T15:36:57.043Z,99388.52
2023-03-19T15:47:05.024Z,99395.29
2023-03-19T15:57:14.460Z,99409.98
2023-03-19T16:07:34.138Z,99414.35
2023-03-19T16:17:42.352Z,99419.55
2023-03-19T16:27:49.124Z,99424.84
2023-03-19T16:37:56.406Z,99426.67
2023-03-19T16:48:04.439Z,99433.38
2023-03-19T16:58:15.246Z,99436.23
2023-03-19T17:08:21.895Z,99445.06
2023-03-19T17:18:30.450Z,99453.91
2023-03-19T17:28:36.032Z,99452.67
2023-03-19T17:38:42.050Z,99450.16
2023-03-19T17:48:49.319Z,99454.70
2023-03-19T17:58:55.494Z,99447.07
2023-03-19T18:09:01.274Z,99442.52
2023-03-19T18:19:19.571Z,99443.86
2023-03-19T18:29:25.322Z,99449.80
2023-03-19T18:39:33.064Z,99448.09
2023-03-19T18:49:38.823Z,99450.38
2023-03-19T18:59:44.890Z,99456.71
2023-03-19T19:09:50.823Z,99464.48
2023-03-19T19:19:56.840Z,99454.90
2023-03-19T19:30:03.201Z,99447.46
2023-03-19T19:40:12.428Z,99450.79
2023-03-19T19:50:22.046Z,99457.61
2023-03-19T20:00:30.045Z,99458.70
2023-03-19T20:10:35.984Z,99461.18
2023-03-19T20:20:41.948Z,99466.33
2023-03-19T20:30:48.241Z,99460.84
2023-03-19T20:40:55.871Z,99463.88
2023-03-19T20:51:04.064Z,99461.77
2023-03-19T21:01:10.873Z,99458.84
2023-03-19T21:11:19.115Z,99458.93
2023-03-19T21:21:29.851Z,99462.38
2023-03-19T21:31:36.154Z,99468.75
2023-03-19T21:41:42.758Z,99468.88
2023-03-19T21:51:50.074Z,99464.17
2023-03-19T22:01:56.609Z,99460.80
2023-03-19T22:12:02.711Z,99457.41
2023-03-19T22:22:09.299Z,99456.09
2023-03-19T22:32:19.096Z,99453.16
2023-03-19T22:42:28.636Z,99448.55
2023-03-19T22:52:34.910Z,99444.40
2023-03-19T23:02:41.559Z,99445.09
2023-03-19T23:12:47.641Z,99443.46
2023-03-19T23:22:53.352Z,99438.36
2023-03-19T23:33:01.289Z,99428.38
2023-03-19T23:43:08.553Z,99421.25
2023-03-19T23:53:19.715Z,99423.45
